Current Weather

Newark Liberty Intl

Newark, New Jersey (KEWR)

Report from: Tuesday, May 21, 2024 12:51 PM EDT
Current time: Tuesday, May 21, 2024 1:36 PM EDT

Nearby weather – Weather history – Daily summaries
Weather forecast

Temperature28.9°C (84.0°F)
Heat index29.7°C (85.5°F)
Dew point17.2°C (63.0°F)
Winds 4 kts (2.1 m/s, 4.6 mph) South-Southwest (210°)
Visibility10 mi. (16.1 km)
Clouds Few clouds 4,500 ft. (1,372 m)
Scattered clouds 25,000 ft. (7,620 m)
Altimeter29.96 in.Hg (1015 mB)
Relative humidity49 %
Density altitude1,820 ft. (555 m)
Sea-level pressure101.5 kPa (1015 mB, 29.96 in.Hg)
Remarks System requires maintenance
Automated weather observing station with precipitation discriminator
Flight conditions Visual Meteorological Conditions
Raw dataKEWR 211651Z 21004KT 10SM FEW045 SCT250 29/17 A2996 RMK AO2 SLP146 T02890172 $
An error has occurred. This application may no longer respond until reloaded. Reload 🗙